EA1RCG
43.09.45N 005.49.78W
IN73CD aprs.fi
zuletzt gehoert:
2021-11-30T17:31:08Z
zuerst gehoert:
2020-02-10T15:02:49Z

APRS IN73CD, 0 Stunde(n), EA1RCG [19:08:59, 0s].
EA1RCG 43.09.45N 005.49.78WIN73CD 0.560km 309°NW17:31:08ZGRUPO RADIO GALENA (GRG) 433.4500/433.4500 CC1
EA1HWA 43.12.00N 005.47.40WIN73CE 5.779km 29°NNE18:01:48ZMMDVM MMDVM HS Hat 433.4500/433.4500 CC1
EA1JBL 43.12.28N 005.47.42WIN73CE 6.237km 26°NNE18:02:11ZMMDVM DVMega 435.3000/435.3000 CC1
EB1DGC 43.12.60N 005.45.59WIN73CF 8.086km 40°NE17:30:49ZMMDVM MMDVM HS Hat 433.4500/433.4500 CC1
EA1IMW 43.14.36N 005.46.93WIN73CF 10.035km 20°NNE17:31:24ZGRUPO RADIO GALENA (GRG) 433.4500/433.4500 CC1
EA1GCM 43.17.02N 005.48.47WIN73CG 14.422km N18:07:51ZAPRS-IS for Win32(3EA1GCM-8)
ED1ZAD 43.07.90N 005.38.52WIN73ED 15.001km 100°E17:51:19ZED1ZAD-3 APRS Digi/Igate(3ED1ZAD-3)
EA1HWX 43.19.29N 005.50.96WIN73BH 18.677km 354°N17:31:05ZDMO - UHF 439.7250/431.0000 CC11
EA1L 43.20.38N 005.51.13WIN73BI 20.728km 354°N17:56:34ZWind 038°/000kn, Böen bis 002kn, Temp 11.67c, Regen 0.0mm, letzte 24h 0.5mm, seit 0h 0.5mm, Baro 1023.5h, Hum: 82%(3EA1L-13)
ea1l@ure.es V=13.4V,T=??.?C(2EA1L)
EA1AQK 43.16.49N 005.35.99WIN73EG 22.589km 54°NE18:01:05ZMMDVM MMDVM HS Hat 439.8500/439.8500 CC1
33D00 43.21.63N 005.51.13WIN73BI 23.012km 354°N18:01:42Z33-D-00 Protección Civil REMER / Delegación del Gobierno en Asturias
EA1YR 43.22.09N 005.51.86WIN73BI 23.993km 352°N18:02:25ZMMDVM DVS 434.3500/434.3500 CC1
LEHU 43.22.63N 005.49.57WIN73CJ 24.756km 360°N18:00:37ZHelipuerto del HUCA: LEAS 301700Z VRB02KT 9999 FEW042 SCT060 11/08 Q1025 NOSIG=
ED1ZAU 43.23.04N 005.52.75WIN73BJ 25.899km 350°N18:02:42ZRD625 438.5000/430.9000 CC1
EA1ABW 43.24.77N 005.47.77WIN73CJ 28.829km N17:31:02ZMMDVM MMDVM HS Hat 439.8250/439.8250 CC1
LEMR 43.25.83N 005.49.60WIN73CK 30.686km 360°N18:00:39ZAerodromo de la Morgal: LEAS 301700Z VRB02KT 9999 FEW042 SCT060 11/08 Q1025 NOSIG=
LEGM 43.26.15N 005.49.84WIN73CK 31.300km 359°N18:00:36ZHelipuerto de La Morgal: LEAS 301700Z VRB02KT 9999 FEW042 SCT060 11/08 Q1025 NOSIG=
ED1ZAS 43.27.52N 005.40.17WIN73DL 36.078km 20°NNE18:02:43ZRD985 438.2250/430.6250 CC1
ED1ZAE 43.27.99N 005.40.54WIN73DL 36.712km 19°NNE17:55:15Z2m Voice 145.5875 -0.600 Mhz(3ED1ZAE-C)
WIDE3-3 ESAS3-3 IN73DL WWW.EA1URG.ORG(2ED1ZAE-3)
ED1ZAY 43.29.47N 005.56.54WIN73AL 38.646km 346°NNW18:02:43ZRD625 438.3000/430.7000 CC1
EB1GEM 43.30.00N 005.36.07WIN73EM 42.462km 25°NNE17:58:26ZWX3in1Plus2.0 U=13.3V,T=??.?C/??.?F(3EB1GEM-3)
EA1FFA 43.31.53N 005.40.64WIN73DM 42.946km 16°NNE18:01:55ZMMDVM MMDVM HS Hat 438.8000/438.8000 CC1
EA1DZR 43.31.48N 005.40.00WIN73EM 43.087km 17°NNE17:31:21ZMMDVM DVS 434.3500/434.3500 CC1
EA1HJA 43.28.10N 005.30.45WIN73FL 43.300km 36°NE18:02:12ZEA1HJA@URE.ES
IN73FL WX3IN1+ 2.0 - V=13.2V,TX TEMP=24.6C(2EA1HJA-2)
EB1TK 43.32.22N 005.42.32WIN73DM 43.621km 13°NNE18:05:15ZWind 274°/002kn, Böen bis 004kn, Temp 10.56c, Regen 0.0mm, letzte 24h 1.0mm, seit 0h 1.0mm, Baro 1027.9h, Hum: 86%(3EB1TK-13)
EA1AHA 43.32.72N 005.54.38WIN73BN 43.971km 351°N18:02:17ZWind 000°/000kn, Böen bis 000kn, Temp 12.78c, Regen 0.0mm, letzte 24h 0.0mm, seit 0h 0.0mm, Baro 1026.8h, Hum: 66%(3EA1AHA-13)
LEEL 43.32.98N 005.41.71WIN73DN 45.157km 13°NNE18:00:40ZHelipuerto de El Musel: LEAS 301700Z VRB02KT 9999 FEW042 SCT060 11/08 Q1025 NOSIG=
EA1FHR 43.28.72N 005.26.41WIN73GL 47.585km 41°NE17:31:35ZMMDVM MMDVM HS Hat 439.1500/439.1500 CC1
EA1HWD 43.28.96N 005.26.30WIN73GL 48.027km 40°NE17:31:47Z144.575FM Local frecuency VHF. 434.2500/434.2500 CC1
EA1JAY 43.29.33N 005.26.78WIN73GL 48.150km 39°NE17:30:08Z434.525MHz Nodo TETRA DMO(3EA1JAY-4)
EA1JAY(2EA1JAY-2)
LETN 43.20.05N 006.22.69WIN63TI 49.102km 294°WNW18:00:36ZAerodromo de La Curiscada (Tineo): LEAS 301700Z VRB02KT 9999 FEW042 SCT060 11/08 Q1025 NOSIG=

aprs.pl 5.0.011w DL3EL © 2006-2021 [1163810]